Bache, Oklahoma
Current Conditions -  °F | °C
As of 10:53 AM on Saturday 25 Oct 2014 (Local Time) from KMLC Reporting Station
Few Clouds Few Clouds  
Wind Chill: 74°   Ceiling: Unl
Heat Index: 74°   Visibility: 10mi
Dew Point: 61°   Wind: 12mph
Humidity: 64%   Direction: 210°SSW
Pressure: 30.13"   Gusts: NA
Location:  34.9351°N, 95.8929°W
Report Text: KMLC 251553Z AUTO 21010KT 10SM FEW080 23/16 A3013 RMK AO2 SLP194 T02330161
Loading
Personal Weather Stations






























Interactive Weather Map
Tropical Storm Tracking
New forecast layout! Learn more

10-Day Weather Forecast

Advertisements
Track Severe Weather on mobile